Astorga, Brazil
Current Conditions -  °F | °C
As of 6:00 PM on Sunday 23 Nov 2014 (Local Time) from SBMG Reporting Station
Few Clouds Few Clouds  
Wind Chill: 84°   Ceiling: Unl
Heat Index: 87°   Visibility: 6mi
Dew Point: 68°   Wind: 2mph
Humidity: 58%   Direction: 300°WNW
Pressure: 29.85"   Gusts: NA
Location:  23.23°S, 51.67°W
Report Text: SBMG 232000Z 30002KT 9999 FEW040 FEW050TCU 29/20 Q1011
Loading
Personal Weather Stations






























Interactive Weather Map New forecast layout! Learn more

10-Day Weather Forecast

Advertisements
Track Severe Weather on mobile